createdAt,value
2023-04-25T00:23:48.988Z,17.85
2023-04-25T00:26:51.882Z,17.02
2023-04-25T00:29:54.319Z,17.67
2023-04-25T00:35:59.625Z,16.10
2023-04-25T00:39:01.976Z,15.30
2023-04-25T00:42:04.764Z,15.18
2023-04-25T00:45:08.686Z,14.85
2023-04-25T00:48:11.357Z,14.52
2023-04-25T00:51:17.690Z,14.57
2023-04-25T00:54:20.394Z,14.32
2023-04-25T00:57:23.141Z,14.75
2023-04-25T01:00:25.582Z,14.47
2023-04-25T01:03:29.856Z,14.35
2023-04-25T01:06:33.017Z,15.23
2023-04-25T01:09:36.614Z,13.60
2023-04-25T01:12:39.085Z,13.65
2023-04-25T01:15:41.569Z,14.43
2023-04-25T01:18:45.552Z,13.45
2023-04-25T01:21:48.179Z,12.73
2023-04-25T01:24:51.675Z,13.07
2023-04-25T01:27:54.331Z,14.18
2023-04-25T01:30:58.314Z,14.03
2023-04-25T01:34:01.846Z,15.20
2023-04-25T01:37:05.169Z,13.27
2023-04-25T01:40:09.284Z,14.37
2023-04-25T01:43:13.128Z,13.15
2023-04-25T01:46:16.339Z,13.85
2023-04-25T01:49:19.958Z,14.15
2023-04-25T01:52:22.752Z,13.30
2023-04-25T01:55:25.604Z,13.25
2023-04-25T01:58:35.213Z,12.93
2023-04-25T02:02:04.624Z,12.87
2023-04-25T02:05:08.788Z,13.20
2023-04-25T02:08:14.477Z,13.43
2023-04-25T02:11:16.928Z,13.93
2023-04-25T02:14:26.589Z,13.15
2023-04-25T02:17:48.153Z,12.40
2023-04-25T02:20:50.716Z,12.82
2023-04-25T02:23:53.711Z,13.32
2023-04-25T02:26:59.211Z,12.70
2023-04-25T02:30:02.245Z,11.02
2023-04-25T02:33:04.750Z,11.13
2023-04-25T02:36:07.801Z,10.18
2023-04-25T02:39:11.326Z,10.55
2023-04-25T02:42:13.833Z,10.13
2023-04-25T02:45:16.338Z,11.23
2023-04-25T02:48:18.807Z,10.35
2023-04-25T02:51:21.357Z,10.15
2023-04-25T02:54:24.077Z,10.10
2023-04-25T02:57:26.576Z,10.63
2023-04-25T03:00:29.598Z,10.05
2023-04-25T03:03:32.453Z,10.20
2023-04-25T03:06:34.906Z,10.43
2023-04-25T03:09:37.545Z,10.40
2023-04-25T03:12:40.168Z,10.30
2023-04-25T03:15:42.588Z,10.43
2023-04-25T03:18:45.034Z,10.43
2023-04-25T03:21:47.826Z,10.98
2023-04-25T03:24:51.127Z,10.88
2023-04-25T03:27:53.499Z,11.07
2023-04-25T03:30:56.089Z,11.02
2023-04-25T03:33:58.681Z,10.93
2023-04-25T03:37:01.627Z,11.15
2023-04-25T03:40:07.688Z,11.75
2023-04-25T03:43:40.462Z,12.07
2023-04-25T03:46:47.062Z,11.68
2023-04-25T03:49:52.764Z,12.05
2023-04-25T03:52:57.905Z,11.68
2023-04-25T03:56:03.356Z,13.75
2023-04-25T03:59:09.015Z,13.75
2023-04-25T04:02:11.907Z,13.77
2023-04-25T04:05:15.628Z,14.37
2023-04-25T04:08:24.711Z,14.98
2023-04-25T04:11:27.352Z,16.67
2023-04-25T04:14:29.761Z,16.07
2023-04-25T04:17:32.779Z,16.55
2023-04-25T04:20:35.472Z,16.33
2023-04-25T04:23:39.646Z,15.55
2023-04-25T04:26:46.052Z,16.88
2023-04-25T04:30:06.026Z,15.00
2023-04-25T04:33:16.241Z,15.07
2023-04-25T04:36:30.797Z,16.63
2023-04-25T04:39:35.091Z,17.17
2023-04-25T04:42:51.422Z,18.35
2023-04-25T04:46:04.521Z,16.85
2023-04-25T04:49:27.416Z,15.60
2023-04-25T04:52:52.674Z,16.45
2023-04-25T04:56:13.462Z,15.43
2023-04-25T04:59:27.034Z,16.90
2023-04-25T05:03:02.225Z,16.98
2023-04-25T05:06:32.204Z,16.08
2023-04-25T05:10:14.184Z,18.00
2023-04-25T05:13:39.687Z,17.42
2023-04-25T05:16:55.223Z,17.05
2023-04-25T05:20:20.717Z,17.58
2023-04-25T05:23:41.502Z,17.00
2023-04-25T05:27:09.851Z,15.75
2023-04-25T05:30:36.428Z,16.50
2023-04-25T05:34:05.194Z,15.63
2023-04-25T05:37:25.564Z,17.15
2023-04-25T05:40:41.847Z,15.93
2023-04-25T05:43:54.116Z,16.35
2023-04-25T05:47:06.037Z,16.27
2023-04-25T05:50:27.631Z,16.40
2023-04-25T05:53:49.235Z,17.15
2023-04-25T05:56:51.880Z,16.73
2023-04-25T05:59:55.116Z,16.45
2023-04-25T06:02:59.170Z,15.75
2023-04-25T06:06:01.890Z,16.47
2023-04-25T06:09:04.497Z,14.52
2023-04-25T06:12:08.204Z,13.38
2023-04-25T06:15:24.503Z,11.85
2023-04-25T06:18:30.881Z,12.07
2023-04-25T06:21:33.402Z,13.05
2023-04-25T06:24:36.434Z,12.63
2023-04-25T06:27:40.328Z,13.37
2023-04-25T06:30:44.070Z,12.52
2023-04-25T06:33:50.322Z,13.40
2023-04-25T06:36:52.979Z,12.90
2023-04-25T06:39:56.867Z,13.13
2023-04-25T06:42:59.352Z,13.00
2023-04-25T06:46:13.436Z,12.90
2023-04-25T06:49:20.354Z,13.88
2023-04-25T06:52:22.992Z,14.13
2023-04-25T06:55:28.393Z,13.63
2023-04-25T06:58:44.251Z,13.73
2023-04-25T07:01:51.748Z,13.07
2023-04-25T07:05:00.841Z,12.57
2023-04-25T07:08:04.079Z,11.90
2023-04-25T07:11:06.681Z,12.50
2023-04-25T07:14:09.146Z,5.97
2023-04-25T07:17:11.766Z,2.13
2023-04-25T07:20:15.589Z,1.50
2023-04-25T07:23:18.255Z,1.70
2023-04-25T07:26:21.013Z,1.40
2023-04-25T07:29:49.345Z,0.90
2023-04-25T07:32:51.841Z,1.30
2023-04-25T07:35:54.421Z,1.10
2023-04-25T07:38:56.878Z,1.00
2023-04-25T07:41:59.620Z,0.95
2023-04-25T07:45:05.666Z,1.00
2023-04-25T07:48:08.963Z,1.00
2023-04-25T07:51:14.229Z,0.73
2023-04-25T07:54:17.013Z,0.82
2023-04-25T07:57:25.365Z,0.68
2023-04-25T08:00:29.979Z,1.87
2023-04-25T08:03:52.502Z,0.85
2023-04-25T08:07:03.531Z,0.52
2023-04-25T08:10:12.217Z,0.43
2023-04-25T08:13:15.459Z,0.70
2023-04-25T08:16:17.925Z,0.50
2023-04-25T08:19:20.602Z,0.60
2023-04-25T08:22:23.823Z,0.88
2023-04-25T08:25:31.347Z,0.57
2023-04-25T08:28:34.097Z,0.63
2023-04-25T08:31:38.317Z,0.67
2023-04-25T08:34:43.240Z,0.75
2023-04-25T08:37:45.796Z,0.70
2023-04-25T08:40:54.473Z,0.60
2023-04-25T08:44:01.285Z,0.80
2023-04-25T08:47:05.324Z,0.57
2023-04-25T08:50:11.246Z,0.70
2023-04-25T08:53:19.847Z,0.43
2023-04-25T08:56:24.301Z,0.43
2023-04-25T08:59:27.159Z,0.35
2023-04-25T09:02:30.781Z,0.30
2023-04-25T09:05:34.432Z,0.22
2023-04-25T09:08:38.560Z,0.50
2023-04-25T09:11:44.171Z,0.70
2023-04-25T09:15:10.860Z,0.10
2023-04-25T09:18:33.108Z,0.47
2023-04-25T09:21:36.617Z,0.70
2023-04-25T09:24:41.685Z,0.77
2023-04-25T09:27:54.419Z,0.50
2023-04-25T09:31:05.455Z,0.30
2023-04-25T09:34:19.089Z,0.10
2023-04-25T09:37:31.004Z,0.80
2023-04-25T09:41:05.775Z,0.60
2023-04-25T09:44:15.237Z,0.60
2023-04-25T09:47:19.361Z,0.57
2023-04-25T09:50:25.614Z,0.60
2023-04-25T09:53:47.734Z,0.73
2023-04-25T09:57:14.560Z,0.50
2023-04-25T10:00:18.440Z,0.50
2023-04-25T10:03:23.948Z,0.55
2023-04-25T10:06:50.550Z,0.70
2023-04-25T10:31:48.547Z,0.80
2023-04-25T10:34:51.410Z,0.50
2023-04-25T10:37:59.702Z,0.95
2023-04-25T10:41:09.973Z,1.30
2023-04-25T10:44:12.511Z,0.60
2023-04-25T10:47:44.213Z,0.90
2023-04-25T10:50:46.665Z,0.80
2023-04-25T10:53:58.439Z,0.77
2023-04-25T10:57:01.287Z,1.10
2023-04-25T11:00:18.025Z,0.60
2023-04-25T11:03:23.331Z,0.70
2023-04-25T11:07:05.534Z,0.50
2023-04-25T11:10:09.300Z,0.95
2023-04-25T11:13:13.181Z,0.80
2023-04-25T11:16:26.806Z,0.80
2023-04-25T11:19:30.520Z,0.70
2023-04-25T11:22:32.961Z,1.00
2023-04-25T11:25:37.800Z,0.75
2023-04-25T11:28:41.329Z,0.80
2023-04-25T11:31:46.868Z,1.40
2023-04-25T11:34:49.613Z,0.80
2023-04-25T11:37:52.288Z,0.70
2023-04-25T11:40:55.192Z,0.70
2023-04-25T11:43:57.891Z,1.50
2023-04-25T11:47:00.526Z,1.05
2023-04-25T11:50:04.761Z,0.83
2023-04-25T11:53:08.777Z,1.23
2023-04-25T11:56:15.139Z,0.75
2023-04-25T11:59:17.805Z,1.00
2023-04-25T12:02:27.818Z,0.70
2023-04-25T12:05:33.984Z,1.23
2023-04-25T12:08:37.167Z,1.20
2023-04-25T12:11:46.966Z,1.05
2023-04-25T12:14:50.070Z,1.40
2023-04-25T12:17:55.008Z,1.23
2023-04-25T12:20:57.671Z,1.17
2023-04-25T12:24:20.329Z,1.17
2023-04-25T12:27:22.751Z,1.00
2023-04-25T12:30:25.911Z,1.00
2023-04-25T12:33:33.459Z,2.05
2023-04-25T12:36:36.191Z,1.23
2023-04-25T12:39:38.819Z,3.22
2023-04-25T12:42:41.232Z,2.20
2023-04-25T12:45:43.663Z,2.60
2023-04-25T12:48:46.443Z,2.20
2023-04-25T12:51:49.082Z,2.80
2023-04-25T12:54:51.498Z,2.10
2023-04-25T12:57:53.984Z,1.52
2023-04-25T13:00:56.505Z,1.90
2023-04-25T13:03:59.014Z,1.98
2023-04-25T13:07:01.612Z,2.55
2023-04-25T13:10:04.265Z,5.15
2023-04-25T13:13:06.704Z,5.07
2023-04-25T13:16:09.809Z,8.45
2023-04-25T13:19:12.669Z,5.43
2023-04-25T13:22:16.453Z,4.07
2023-04-25T13:25:18.892Z,3.85
2023-04-25T13:28:21.363Z,2.90
2023-04-25T13:31:23.864Z,2.60
2023-04-25T13:34:26.344Z,2.88
2023-04-25T13:37:28.973Z,4.78
2023-04-25T13:40:31.601Z,3.50
2023-04-25T13:43:34.932Z,3.20
2023-04-25T13:49:44.086Z,3.53
2023-04-25T13:52:46.680Z,2.90
2023-04-25T13:55:49.151Z,2.40
2023-04-25T13:58:52.871Z,2.33
2023-04-25T14:01:56.034Z,3.23
2023-04-25T14:04:58.725Z,2.40
2023-04-25T14:08:02.372Z,2.92
2023-04-25T14:11:04.976Z,2.42
2023-04-25T14:14:07.608Z,1.92
2023-04-25T14:17:10.358Z,1.75
2023-04-25T14:20:12.759Z,1.50
2023-04-25T14:23:15.456Z,1.60
2023-04-25T14:26:17.848Z,1.42
2023-04-25T14:29:20.295Z,1.40
2023-04-25T14:32:22.928Z,2.23
2023-04-25T14:35:25.510Z,2.50
2023-04-25T14:38:28.073Z,2.25
2023-04-25T14:41:30.473Z,2.40
2023-04-25T14:44:32.997Z,2.35
2023-04-25T14:47:38.766Z,2.67
2023-04-25T14:50:41.333Z,2.97
2023-04-25T14:53:43.770Z,3.53
2023-04-25T14:56:46.161Z,3.95
2023-04-25T14:59:48.748Z,4.18
2023-04-25T15:02:51.898Z,3.60
2023-04-25T15:05:57.933Z,3.50
2023-04-25T15:09:00.914Z,2.60
2023-04-25T15:12:03.706Z,3.40
2023-04-25T15:15:07.401Z,2.92
2023-04-25T15:18:10.025Z,3.88
2023-04-25T15:21:12.828Z,3.42
2023-04-25T15:24:16.443Z,3.37
2023-04-25T15:27:19.152Z,4.00
2023-04-25T15:30:26.201Z,4.70
2023-04-25T15:33:29.008Z,3.73
2023-04-25T15:36:32.548Z,3.10
2023-04-25T15:39:35.035Z,3.05
2023-04-25T15:42:55.113Z,2.60
2023-04-25T15:45:57.541Z,2.28
2023-04-25T15:48:59.944Z,2.30
2023-04-25T15:52:02.575Z,2.00
2023-04-25T15:55:06.487Z,1.80
2023-04-25T15:58:10.742Z,1.70
2023-04-25T16:01:15.796Z,1.77
2023-04-25T16:04:18.559Z,2.07
2023-04-25T16:07:21.037Z,1.70
2023-04-25T16:10:25.358Z,1.92
2023-04-25T16:13:27.808Z,1.40
2023-04-25T16:16:30.473Z,2.17
2023-04-25T16:19:32.879Z,2.10
2023-04-25T16:22:39.161Z,1.50
2023-04-25T16:25:43.041Z,2.00
2023-04-25T16:28:45.541Z,1.90
2023-04-25T16:31:48.687Z,2.20
2023-04-25T16:34:51.388Z,2.13
2023-04-25T16:37:53.864Z,1.80
2023-04-25T16:40:59.777Z,1.70
2023-04-25T16:44:02.158Z,1.92
2023-04-25T16:47:06.160Z,2.17
2023-04-25T16:50:09.200Z,2.03
2023-04-25T16:53:11.974Z,2.03
2023-04-25T16:56:14.454Z,1.77
2023-04-25T16:59:17.188Z,2.00
2023-04-25T17:02:19.757Z,2.17
2023-04-25T17:05:22.517Z,2.20
2023-04-25T17:08:25.034Z,2.00
2023-04-25T17:11:28.831Z,2.00
2023-04-25T17:14:33.269Z,1.80
2023-04-25T17:17:35.782Z,1.90
2023-04-25T17:20:39.072Z,2.05
2023-04-25T17:23:45.547Z,2.30
2023-04-25T17:26:49.032Z,2.20
2023-04-25T17:29:51.933Z,1.90
2023-04-25T17:32:54.387Z,2.00
2023-04-25T17:35:56.810Z,2.50
2023-04-25T17:38:59.226Z,2.05
2023-04-25T17:42:02.410Z,2.20
2023-04-25T17:45:06.069Z,2.50
2023-04-25T17:48:08.711Z,2.47
2023-04-25T17:51:11.500Z,2.42
2023-04-25T17:54:14.717Z,2.33
2023-04-25T17:57:17.985Z,2.50
2023-04-25T18:00:20.491Z,2.60
2023-04-25T18:03:23.296Z,2.88
2023-04-25T18:06:28.309Z,2.57
2023-04-25T18:09:32.350Z,2.95
2023-04-25T18:12:35.053Z,2.92
2023-04-25T18:15:37.457Z,2.55
2023-04-25T18:18:43.140Z,2.72
2023-04-25T18:21:45.976Z,2.67
2023-04-25T18:24:50.969Z,3.08
2023-04-25T18:27:53.528Z,2.43
2023-04-25T18:30:56.789Z,2.40
2023-04-25T18:33:59.603Z,2.85
2023-04-25T18:37:02.373Z,3.27
2023-04-25T18:40:07.195Z,2.65
2023-04-25T18:43:09.949Z,3.10
2023-04-25T18:46:13.674Z,3.20
2023-04-25T18:49:16.393Z,3.15
2023-04-25T18:52:19.689Z,3.70
2023-04-25T18:55:22.324Z,3.92
2023-04-25T18:58:25.273Z,3.77
2023-04-25T19:01:28.115Z,3.60
2023-04-25T19:04:31.048Z,3.15
2023-04-25T19:07:33.795Z,3.33
2023-04-25T19:10:39.116Z,3.00
2023-04-25T19:13:41.906Z,3.80
2023-04-25T19:16:44.832Z,3.47
2023-04-25T19:19:47.808Z,3.50
2023-04-25T19:22:51.754Z,3.47
2023-04-25T19:25:54.398Z,3.50
2023-04-25T19:29:07.195Z,3.37
2023-04-25T19:32:10.051Z,3.70
2023-04-25T19:35:13.477Z,3.58
2023-04-25T19:38:16.586Z,3.30
2023-04-25T19:41:19.399Z,3.60
2023-04-25T19:44:22.233Z,3.20
2023-04-25T19:47:27.656Z,3.50
2023-04-25T19:50:30.917Z,3.15
2023-04-25T19:53:33.654Z,3.25
2023-04-25T19:56:36.392Z,3.10
2023-04-25T19:59:39.299Z,3.40
2023-04-25T20:02:45.279Z,3.40
2023-04-25T20:05:48.787Z,3.60
2023-04-25T20:08:55.235Z,3.47
2023-04-25T20:11:57.745Z,3.45
2023-04-25T20:15:00.866Z,3.55
2023-04-25T20:18:04.580Z,3.45
2023-04-25T20:21:08.535Z,4.28
2023-04-25T20:24:11.963Z,3.90
2023-04-25T20:27:14.382Z,3.40
2023-04-25T20:30:16.871Z,3.73
2023-04-25T20:33:19.297Z,3.60
2023-04-25T20:36:21.986Z,4.00
2023-04-25T20:39:25.031Z,3.70
2023-04-25T20:42:27.687Z,3.60
2023-04-25T20:45:32.226Z,4.00
2023-04-25T20:48:35.718Z,3.60
2023-04-25T20:51:38.397Z,3.78
2023-04-25T20:54:41.613Z,3.85
2023-04-25T20:57:43.995Z,4.45
2023-04-25T21:00:47.726Z,3.80
2023-04-25T21:03:53.172Z,4.07
2023-04-25T21:06:55.740Z,5.03
2023-04-25T21:09:58.237Z,5.90
2023-04-25T21:13:00.846Z,4.68
2023-04-25T21:16:03.723Z,4.78
2023-04-25T21:19:06.823Z,4.78
2023-04-25T21:22:09.287Z,4.10
2023-04-25T21:25:11.718Z,4.18
2023-04-25T21:28:14.191Z,4.00
2023-04-25T21:31:16.716Z,4.10
2023-04-25T21:34:19.253Z,4.38
2023-04-25T21:37:21.725Z,4.30
2023-04-25T21:40:24.946Z,4.40
2023-04-25T21:43:27.289Z,4.65
2023-04-25T21:46:29.759Z,4.97
2023-04-25T21:49:33.119Z,4.70
2023-04-25T21:52:36.150Z,4.88
2023-04-25T21:55:38.697Z,4.72
2023-04-25T21:58:41.107Z,4.75
2023-04-25T22:01:45.436Z,4.30
2023-04-25T22:04:48.410Z,5.43
2023-04-25T22:07:51.938Z,5.60
2023-04-25T22:10:55.294Z,4.60
2023-04-25T22:13:57.921Z,5.13
2023-04-25T22:17:01.268Z,5.40
2023-04-25T22:20:09.754Z,5.22
2023-04-25T22:23:13.779Z,5.40
2023-04-25T22:26:16.210Z,5.22
2023-04-25T22:29:18.748Z,5.30
2023-04-25T22:32:21.163Z,4.90
2023-04-25T22:35:23.906Z,5.65
2023-04-25T22:38:26.532Z,5.30
2023-04-25T22:41:29.016Z,6.17
2023-04-25T22:44:31.518Z,6.85
2023-04-25T22:47:37.796Z,5.93
2023-04-25T22:50:40.871Z,5.63
2023-04-25T22:53:45.275Z,5.80
2023-04-25T22:56:47.692Z,5.55
2023-04-25T22:59:54.205Z,5.93
2023-04-25T23:02:57.138Z,5.90
2023-04-25T23:06:00.279Z,6.10
2023-04-25T23:09:02.977Z,7.30
2023-04-25T23:12:05.834Z,6.23
2023-04-25T23:15:09.390Z,5.38
2023-04-25T23:18:11.906Z,6.35
2023-04-25T23:21:14.523Z,6.32
2023-04-25T23:24:16.915Z,5.90
2023-04-25T23:27:19.241Z,6.80
2023-04-25T23:30:21.869Z,7.00
2023-04-25T23:33:24.298Z,6.27
2023-04-25T23:36:28.106Z,6.00
2023-04-25T23:39:30.962Z,6.25
2023-04-25T23:42:33.531Z,6.10
2023-04-25T23:45:36.464Z,6.82
2023-04-25T23:48:38.881Z,6.63
2023-04-25T23:51:41.394Z,6.90
2023-04-25T23:54:43.746Z,6.75
2023-04-25T23:57:46.292Z,6.70
